createdAt,value
2019-05-01T02:07:34.982Z,15.05
2019-05-01T02:10:10.193Z,16.05
2019-05-01T02:12:45.403Z,16.87
2019-05-01T02:15:19.184Z,16.10
2019-05-01T02:17:52.568Z,16.07
2019-05-01T02:20:26.269Z,17.12
2019-05-01T02:22:59.821Z,15.13
2019-05-01T02:25:34.614Z,16.27
2019-05-01T02:28:09.384Z,17.05
2019-05-01T02:30:44.409Z,15.65
2019-05-01T02:33:18.300Z,16.20
2019-05-01T02:35:52.056Z,14.55
2019-05-01T02:38:25.729Z,14.75
2019-05-01T02:41:01.490Z,15.68
2019-05-01T02:43:37.572Z,15.30
2019-05-01T02:46:13.015Z,15.75
2019-05-01T02:48:47.748Z,15.83
2019-05-01T02:51:22.285Z,16.48
2019-05-01T02:53:59.147Z,16.15
2019-05-01T02:56:34.339Z,15.23
2019-05-01T02:59:09.693Z,15.60
2019-05-01T03:01:48.127Z,15.08
2019-05-01T03:04:19.745Z,14.25
2019-05-01T03:06:54.286Z,14.35
2019-05-01T03:12:02.294Z,13.93
2019-05-01T03:14:37.440Z,13.95
2019-05-01T03:17:14.394Z,14.58
2019-05-01T03:19:50.262Z,13.48
2019-05-01T03:22:25.490Z,13.88
2019-05-01T03:24:59.209Z,12.80
2019-05-01T03:27:32.765Z,14.90
2019-05-01T03:30:08.335Z,14.23
2019-05-01T03:32:42.463Z,14.83
2019-05-01T03:35:16.257Z,14.03
2019-05-01T03:37:50.990Z,13.85
2019-05-01T03:40:26.733Z,13.70
2019-05-01T03:43:01.476Z,13.95
2019-05-01T03:45:35.125Z,13.20
2019-05-01T03:48:09.487Z,13.13
2019-05-01T03:50:46.855Z,13.35
2019-05-01T03:53:19.716Z,15.05
2019-05-01T03:55:54.697Z,14.15
2019-05-01T03:58:28.444Z,12.73
2019-05-01T04:01:04.661Z,13.38
2019-05-01T04:03:40.159Z,13.60
2019-05-01T04:06:15.003Z,13.03
2019-05-01T04:08:49.163Z,12.33
2019-05-01T04:11:23.633Z,12.40
2019-05-01T04:13:59.009Z,11.70
2019-05-01T04:16:33.125Z,11.05
2019-05-01T04:19:08.576Z,11.33
2019-05-01T04:21:45.223Z,10.55
2019-05-01T04:24:20.382Z,10.40
2019-05-01T04:26:55.502Z,11.15
2019-05-01T04:29:31.066Z,11.05
2019-05-01T04:32:06.280Z,10.93
2019-05-01T04:37:16.030Z,9.93
2019-05-01T04:39:50.093Z,11.48
2019-05-01T04:42:24.073Z,12.35
2019-05-01T04:44:57.675Z,11.78
2019-05-01T04:50:05.292Z,10.75
2019-05-01T04:52:39.703Z,12.80
2019-05-01T04:55:14.842Z,11.88
2019-05-01T04:57:49.046Z,12.00
2019-05-01T05:00:24.308Z,11.93
2019-05-01T05:03:04.870Z,11.97
2019-05-01T05:05:36.515Z,12.35
2019-05-01T05:08:10.638Z,11.83
2019-05-01T05:10:44.734Z,11.15
2019-05-01T05:13:20.284Z,10.70
2019-05-01T05:15:55.325Z,10.03
2019-05-01T05:18:29.207Z,10.38
2019-05-01T05:21:04.578Z,9.53
2019-05-01T05:23:38.542Z,10.20
2019-05-01T05:26:13.764Z,10.30
2019-05-01T05:28:49.406Z,9.18
2019-05-01T05:31:24.872Z,9.73
2019-05-01T05:33:59.963Z,10.15
2019-05-01T05:36:35.869Z,10.45
2019-05-01T05:39:11.186Z,9.70
2019-05-01T05:41:45.689Z,10.55
2019-05-01T05:44:19.918Z,9.20
2019-05-01T05:46:53.005Z,9.23
2019-05-01T05:49:27.560Z,9.20
2019-05-01T05:52:03.229Z,9.80
2019-05-01T05:54:39.698Z,8.98
2019-05-01T05:57:18.322Z,8.53
2019-05-01T05:59:54.762Z,8.68
2019-05-01T06:02:31.556Z,9.00
2019-05-01T06:05:07.683Z,9.13
2019-05-01T06:07:44.160Z,9.38
2019-05-01T06:10:23.254Z,8.85
2019-05-01T06:12:56.103Z,9.15
2019-05-01T06:15:31.760Z,8.88
2019-05-01T06:18:07.994Z,9.38
2019-05-01T06:20:43.340Z,9.08
2019-05-01T06:26:00.051Z,8.68
2019-05-01T06:28:31.230Z,8.58
2019-05-01T06:31:06.761Z,8.78
2019-05-01T06:33:44.308Z,8.43
2019-05-01T06:36:16.924Z,8.25
2019-05-01T06:38:53.076Z,8.45
2019-05-01T06:44:04.062Z,8.68
2019-05-01T06:46:37.212Z,8.68
2019-05-01T06:49:11.998Z,9.13
2019-05-01T06:51:53.371Z,8.55
2019-05-01T06:54:33.124Z,8.20
2019-05-01T06:57:05.596Z,8.15
2019-05-01T06:59:43.140Z,8.60
2019-05-01T07:02:21.457Z,8.63
2019-05-01T07:05:00.779Z,8.40
2019-05-01T07:07:38.838Z,8.35
2019-05-01T07:10:29.208Z,7.97
2019-05-01T07:12:53.787Z,8.55
2019-05-01T07:15:28.493Z,8.20
2019-05-01T07:18:03.233Z,8.38
2019-05-01T07:20:38.196Z,8.45
2019-05-01T07:23:12.738Z,8.05
2019-05-01T07:25:50.728Z,9.78
2019-05-01T07:28:28.832Z,8.20
2019-05-01T07:31:04.811Z,8.08
2019-05-01T07:33:36.993Z,7.87
2019-05-01T07:36:16.245Z,8.25
2019-05-01T07:38:49.853Z,8.13
2019-05-01T07:41:28.643Z,8.40
2019-05-01T07:44:09.168Z,7.78
2019-05-01T07:46:48.829Z,8.30
2019-05-01T07:49:20.181Z,8.13
2019-05-01T07:51:55.190Z,7.62
2019-05-01T07:54:29.540Z,8.43
2019-05-01T07:57:04.866Z,8.48
2019-05-01T07:59:40.028Z,8.53
2019-05-01T08:02:16.451Z,8.43
2019-05-01T08:04:52.137Z,7.45
2019-05-01T08:07:32.293Z,8.15
2019-05-01T08:10:07.223Z,8.40
2019-05-01T08:12:45.241Z,7.90
2019-05-01T08:15:22.525Z,9.03
2019-05-01T08:17:58.350Z,8.15
2019-05-01T08:23:07.712Z,8.50
2019-05-01T08:25:41.579Z,8.40
2019-05-01T08:28:16.824Z,8.33
2019-05-01T08:30:52.739Z,7.78
2019-05-01T08:33:29.465Z,8.20
2019-05-01T08:36:06.776Z,7.78
2019-05-01T08:38:38.070Z,8.73
2019-05-01T08:41:13.251Z,8.50
2019-05-01T08:43:48.867Z,8.15
2019-05-01T08:46:28.511Z,8.13
2019-05-01T08:49:06.786Z,9.40
2019-05-01T08:51:38.567Z,7.95
2019-05-01T08:54:12.709Z,8.55
2019-05-01T08:56:46.408Z,8.53
2019-05-01T08:59:23.934Z,8.63
2019-05-01T09:02:08.390Z,8.43
2019-05-01T09:04:32.242Z,9.23
2019-05-01T09:09:45.616Z,8.70
2019-05-01T09:12:17.640Z,9.55
2019-05-01T09:14:52.422Z,10.40
2019-05-01T09:17:26.575Z,9.78
2019-05-01T09:20:00.407Z,9.95
2019-05-01T09:22:35.092Z,10.23
2019-05-01T09:25:10.648Z,10.08
2019-05-01T09:30:26.893Z,9.28
2019-05-01T09:32:59.571Z,9.48
2019-05-01T09:35:33.932Z,8.70
2019-05-01T09:38:07.864Z,9.48
2019-05-01T09:40:41.676Z,8.90
2019-05-01T09:43:16.010Z,9.05
2019-05-01T09:45:49.662Z,9.85
2019-05-01T09:48:23.017Z,9.93
2019-05-01T09:51:00.870Z,11.33
2019-05-01T09:53:35.498Z,9.73
2019-05-01T09:56:10.464Z,11.43
2019-05-01T09:58:54.272Z,11.80
2019-05-01T10:01:31.686Z,11.53
2019-05-01T10:04:05.587Z,11.73
2019-05-01T10:06:39.992Z,11.88
2019-05-01T10:09:16.909Z,11.25
2019-05-01T10:11:49.967Z,12.20
2019-05-01T10:14:23.384Z,13.08
2019-05-01T10:16:57.726Z,11.08
2019-05-01T10:19:31.325Z,11.10
2019-05-01T10:22:04.605Z,11.10
2019-05-01T10:24:39.366Z,11.22
2019-05-01T10:29:47.733Z,10.32
2019-05-01T10:32:23.361Z,11.10
2019-05-01T10:34:58.209Z,10.78
2019-05-01T10:40:07.676Z,9.80
2019-05-01T10:42:41.330Z,11.05
2019-05-01T10:45:15.060Z,9.98
2019-05-01T10:47:49.579Z,11.78
2019-05-01T10:50:23.192Z,10.80
2019-05-01T10:52:56.797Z,11.35
2019-05-01T10:55:30.755Z,10.85
2019-05-01T10:58:03.647Z,11.63
2019-05-01T11:00:39.039Z,11.95
2019-05-01T11:03:13.427Z,12.20
2019-05-01T11:05:55.715Z,10.70
2019-05-01T11:08:21.952Z,10.43
2019-05-01T11:10:55.556Z,10.53
2019-05-01T11:13:29.077Z,10.85
2019-05-01T11:16:03.888Z,11.22
2019-05-01T11:18:38.173Z,11.70
2019-05-01T11:21:11.592Z,21.95
2019-05-01T11:23:45.305Z,34.05
2019-05-01T11:26:21.587Z,27.93
2019-05-01T11:28:59.031Z,12.80
2019-05-01T11:31:34.826Z,12.05
2019-05-01T11:34:10.763Z,12.23
2019-05-01T11:36:45.926Z,27.10
2019-05-01T11:39:18.935Z,13.80
2019-05-01T11:41:54.544Z,13.20
2019-05-01T11:44:28.007Z,14.10
2019-05-01T11:47:03.333Z,15.50
2019-05-01T11:49:39.123Z,15.98
2019-05-01T11:52:12.083Z,17.23
2019-05-01T11:54:45.730Z,17.45
2019-05-01T11:57:19.311Z,16.07
2019-05-01T11:59:52.544Z,15.75
2019-05-01T12:02:26.228Z,16.30
2019-05-01T12:05:00.083Z,17.50
2019-05-01T12:07:33.161Z,17.52
2019-05-01T12:10:10.392Z,16.10
2019-05-01T12:12:44.932Z,16.10
2019-05-01T12:15:19.338Z,15.63
2019-05-01T12:20:32.897Z,14.47
2019-05-01T12:23:06.263Z,14.35
2019-05-01T12:25:39.962Z,14.80
2019-05-01T12:28:13.116Z,13.75
2019-05-01T12:30:47.569Z,13.03
2019-05-01T12:33:22.788Z,12.63
2019-05-01T12:36:01.796Z,12.13
2019-05-01T12:38:35.787Z,11.80
2019-05-01T12:41:10.570Z,12.20
2019-05-01T12:43:44.828Z,13.03
2019-05-01T12:46:20.227Z,11.57
2019-05-01T12:48:54.173Z,12.43
2019-05-01T12:54:02.069Z,12.10
2019-05-01T12:56:38.144Z,11.85
2019-05-01T12:59:13.109Z,11.97
2019-05-01T13:01:47.758Z,11.55
2019-05-01T13:04:22.181Z,11.97
2019-05-01T13:06:58.867Z,11.25
2019-05-01T13:09:35.061Z,11.33
2019-05-01T13:12:14.316Z,12.43
2019-05-01T13:14:51.384Z,11.90
2019-05-01T13:17:24.597Z,11.70
2019-05-01T13:19:58.405Z,11.93
2019-05-01T13:22:32.883Z,11.93
2019-05-01T13:25:09.342Z,11.48
2019-05-01T13:27:44.280Z,12.07
2019-05-01T13:30:20.239Z,11.80
2019-05-01T13:32:55.077Z,11.60
2019-05-01T13:35:30.622Z,11.70
2019-05-01T13:38:06.164Z,12.35
2019-05-01T13:40:39.864Z,11.77
2019-05-01T13:43:13.679Z,11.95
2019-05-01T13:45:47.363Z,11.93
2019-05-01T13:48:21.134Z,11.90
2019-05-01T13:50:55.194Z,11.73
2019-05-01T13:53:30.017Z,11.93
2019-05-01T13:56:05.093Z,11.60
2019-05-01T13:58:38.604Z,12.03
2019-05-01T14:01:12.170Z,11.55
2019-05-01T14:03:45.946Z,12.78
2019-05-01T14:06:19.848Z,12.85
2019-05-01T14:11:27.636Z,12.73
2019-05-01T14:14:07.731Z,12.73
2019-05-01T14:16:44.811Z,12.18
2019-05-01T14:19:19.333Z,12.60
2019-05-01T14:21:54.570Z,12.58
2019-05-01T14:27:02.569Z,13.05
2019-05-01T14:29:37.043Z,13.70
2019-05-01T14:32:10.646Z,11.97
2019-05-01T14:34:48.514Z,13.08
2019-05-01T14:37:29.428Z,12.00
2019-05-01T14:39:58.077Z,12.43
2019-05-01T14:42:33.607Z,12.37
2019-05-01T14:45:09.028Z,11.90
2019-05-01T14:47:43.474Z,13.15
2019-05-01T14:50:20.834Z,11.90
2019-05-01T14:52:56.418Z,12.00
2019-05-01T14:55:30.115Z,11.78
2019-05-01T14:58:05.301Z,12.20
2019-05-01T15:00:39.570Z,11.50
2019-05-01T15:03:13.482Z,12.58
2019-05-01T15:08:15.065Z,12.33
2019-05-01T15:13:25.311Z,11.95
2019-05-01T15:16:00.345Z,12.18
2019-05-01T15:18:35.499Z,12.18
2019-05-01T15:21:08.902Z,13.05
2019-05-01T15:23:53.291Z,11.35
2019-05-01T15:26:20.295Z,12.05
2019-05-01T15:28:54.751Z,11.63
2019-05-01T15:31:30.250Z,13.00
2019-05-01T15:34:04.252Z,12.20
2019-05-01T15:36:39.066Z,12.28
2019-05-01T15:39:14.834Z,12.10
2019-05-01T15:41:50.583Z,13.08
2019-05-01T15:44:26.914Z,12.28
2019-05-01T15:47:02.912Z,12.58
2019-05-01T15:49:38.609Z,13.28
2019-05-01T15:52:13.517Z,12.07
2019-05-01T15:54:47.625Z,13.08
2019-05-01T15:57:21.491Z,12.18
2019-05-01T15:59:55.421Z,12.37
2019-05-01T16:02:31.195Z,12.18
2019-05-01T16:05:07.836Z,12.75
2019-05-01T16:07:41.647Z,12.85
2019-05-01T16:10:19.851Z,12.40
2019-05-01T16:12:56.826Z,12.37
2019-05-01T16:15:33.513Z,14.85
2019-05-01T16:18:08.330Z,12.58
2019-05-01T16:20:42.152Z,12.37
2019-05-01T16:23:16.794Z,12.85
2019-05-01T16:25:53.040Z,11.93
2019-05-01T16:28:26.897Z,12.05
2019-05-01T16:31:02.266Z,13.03
2019-05-01T16:33:39.338Z,13.50
2019-05-01T16:36:13.571Z,13.10
2019-05-01T16:41:23.067Z,12.03
2019-05-01T16:43:56.658Z,12.07
2019-05-01T16:49:12.153Z,13.22
2019-05-01T16:51:46.945Z,13.58
2019-05-01T16:54:22.641Z,13.13
2019-05-01T16:56:57.504Z,12.98
2019-05-01T17:02:07.786Z,12.35
2019-05-01T17:04:43.841Z,12.82
2019-05-01T17:07:19.618Z,12.95
2019-05-01T17:09:55.557Z,12.20
2019-05-01T17:12:31.610Z,12.35
2019-05-01T17:15:05.631Z,12.07
2019-05-01T17:17:39.524Z,12.45
2019-05-01T17:20:12.978Z,12.50
2019-05-01T17:22:50.592Z,12.03
2019-05-01T17:27:56.510Z,11.97
2019-05-01T17:30:31.834Z,12.60
2019-05-01T17:33:05.213Z,12.20
2019-05-01T17:35:41.829Z,12.78
2019-05-01T17:38:14.146Z,12.75
2019-05-01T17:40:51.856Z,12.63
2019-05-01T17:43:25.351Z,13.15
2019-05-01T17:45:59.172Z,13.57
2019-05-01T17:48:33.658Z,12.95
2019-05-01T17:53:40.302Z,12.82
2019-05-01T17:56:15.425Z,13.27
2019-05-01T17:58:48.609Z,12.47
2019-05-01T18:01:27.812Z,13.48
2019-05-01T18:03:59.884Z,13.22
2019-05-01T18:06:34.735Z,13.88
2019-05-01T18:09:13.610Z,12.80
2019-05-01T18:11:47.269Z,14.03
2019-05-01T18:14:20.438Z,14.58
2019-05-01T18:16:54.047Z,13.40
2019-05-01T18:19:28.397Z,13.78
2019-05-01T18:22:03.206Z,14.03
2019-05-01T18:27:14.668Z,13.55
2019-05-01T18:29:50.046Z,13.53
2019-05-01T18:32:24.822Z,13.50
2019-05-01T18:34:58.222Z,14.65
2019-05-01T18:37:35.055Z,15.05
2019-05-01T18:40:11.675Z,14.78
2019-05-01T18:42:44.995Z,13.65
2019-05-01T18:45:24.904Z,13.88
2019-05-01T18:47:56.469Z,14.43
2019-05-01T18:50:29.568Z,13.58
2019-05-01T18:53:01.979Z,13.68
2019-05-01T18:55:34.614Z,15.08
2019-05-01T18:58:08.493Z,13.60
2019-05-01T19:00:41.372Z,15.65
2019-05-01T19:03:14.761Z,14.20
2019-05-01T19:05:48.278Z,13.35
2019-05-01T19:08:22.198Z,14.43
2019-05-01T19:10:55.042Z,15.25
2019-05-01T19:13:28.950Z,12.25
2019-05-01T19:16:03.289Z,15.18
2019-05-01T19:18:35.988Z,13.05
2019-05-01T19:21:08.517Z,16.50
2019-05-01T19:23:41.124Z,14.40
2019-05-01T19:26:15.125Z,14.30
2019-05-01T19:28:48.246Z,13.43
2019-05-01T19:31:21.439Z,14.33
2019-05-01T19:33:55.415Z,13.53
2019-05-01T19:36:29.547Z,13.58
2019-05-01T19:39:02.441Z,14.10
2019-05-01T19:41:36.661Z,13.62
2019-05-01T19:44:09.230Z,14.15
2019-05-01T19:46:41.864Z,13.38
2019-05-01T19:49:14.952Z,13.13
2019-05-01T19:51:48.039Z,13.03
2019-05-01T19:54:23.026Z,13.30
2019-05-01T19:56:55.446Z,13.15
2019-05-01T19:59:28.321Z,13.08
2019-05-01T20:02:00.706Z,12.30
2019-05-01T20:04:33.586Z,12.98
2019-05-01T20:07:10.512Z,13.32
2019-05-01T20:09:40.450Z,13.18
2019-05-01T20:12:13.952Z,12.90
2019-05-01T20:14:47.169Z,12.98
2019-05-01T20:17:20.269Z,12.73
2019-05-01T20:19:53.957Z,13.28
2019-05-01T20:22:26.966Z,12.75
2019-05-01T20:24:59.600Z,13.05
2019-05-01T20:27:32.196Z,12.70
2019-05-01T20:30:05.491Z,12.90
2019-05-01T20:32:38.322Z,12.63
2019-05-01T20:35:10.863Z,13.10
2019-05-01T20:37:43.121Z,13.25
2019-05-01T20:40:16.284Z,12.70
2019-05-01T20:42:48.987Z,12.70
2019-05-01T20:45:21.889Z,12.75
2019-05-01T20:47:54.458Z,12.33
2019-05-01T20:50:27.039Z,12.30
2019-05-01T20:52:59.369Z,12.13
2019-05-01T20:55:31.739Z,12.98
2019-05-01T20:58:05.677Z,12.80
2019-05-01T21:00:38.367Z,11.85
2019-05-01T21:03:14.294Z,11.83
2019-05-01T21:05:46.685Z,12.55
2019-05-01T21:08:21.410Z,12.53
2019-05-01T21:10:55.327Z,11.90
2019-05-01T21:13:27.954Z,12.33
2019-05-01T21:16:01.653Z,13.18
2019-05-01T21:18:34.318Z,12.60
2019-05-01T21:21:06.983Z,12.65
2019-05-01T21:23:39.553Z,12.03
2019-05-01T21:29:04.089Z,12.15
2019-05-01T21:31:36.920Z,12.13
2019-05-01T21:34:09.741Z,12.90
2019-05-01T21:36:42.224Z,12.43
2019-05-01T21:39:15.581Z,12.60
2019-05-01T21:41:48.963Z,12.73
2019-05-01T21:44:23.361Z,12.63
2019-05-01T21:46:56.127Z,11.80
2019-05-01T21:49:28.948Z,12.40
2019-05-01T21:52:03.580Z,12.73
2019-05-01T21:54:36.201Z,12.00
2019-05-01T21:57:11.927Z,12.90
2019-05-01T21:59:44.822Z,12.70
2019-05-01T22:02:17.567Z,12.58
2019-05-01T22:04:50.240Z,12.15
2019-05-01T22:07:23.870Z,12.18
2019-05-01T22:09:56.874Z,12.37
2019-05-01T22:12:29.644Z,13.13
2019-05-01T22:15:06.255Z,12.95
2019-05-01T22:17:40.699Z,12.90
2019-05-01T22:20:14.711Z,12.23
2019-05-01T22:22:48.928Z,13.00
2019-05-01T22:25:23.343Z,12.55
2019-05-01T22:27:57.759Z,12.90
2019-05-01T22:30:31.976Z,13.80
2019-05-01T22:33:04.546Z,13.60
2019-05-01T22:35:38.355Z,13.58
2019-05-01T22:38:12.103Z,12.63
2019-05-01T22:40:46.374Z,13.60
2019-05-01T22:43:19.265Z,13.25
2019-05-01T22:45:56.201Z,13.15
2019-05-01T22:48:26.735Z,13.70
2019-05-01T22:51:00.780Z,12.93
2019-05-01T22:53:33.164Z,13.83
2019-05-01T22:56:05.500Z,13.18
2019-05-01T22:58:38.124Z,13.48
2019-05-01T23:01:13.384Z,13.62
2019-05-01T23:03:45.030Z,12.78
2019-05-01T23:06:19.963Z,14.00
2019-05-01T23:08:53.011Z,13.55
2019-05-01T23:11:27.434Z,13.38
2019-05-01T23:14:00.285Z,13.83
2019-05-01T23:16:34.328Z,15.03
2019-05-01T23:19:07.273Z,15.30
2019-05-01T23:21:39.988Z,18.15
2019-05-01T23:24:13.393Z,17.40
2019-05-01T23:26:48.075Z,17.17
2019-05-01T23:29:20.485Z,16.70
2019-05-01T23:31:53.567Z,17.02
2019-05-01T23:34:27.922Z,16.75
2019-05-01T23:37:00.455Z,16.17
2019-05-01T23:39:39.737Z,15.35
2019-05-01T23:42:10.498Z,14.95
2019-05-01T23:44:44.269Z,15.48
2019-05-01T23:47:17.428Z,15.08
2019-05-01T23:49:52.559Z,15.55
2019-05-01T23:52:26.596Z,15.95
2019-05-01T23:54:59.617Z,15.20
2019-05-01T23:57:32.070Z,15.63
